createdAt,value
2022-12-09T00:02:35.742Z,2.30
2022-12-09T00:05:40.691Z,2.47
2022-12-09T00:08:43.185Z,2.47
2022-12-09T00:11:45.220Z,1.90
2022-12-09T00:14:47.220Z,1.95
2022-12-09T00:17:49.521Z,2.40
2022-12-09T00:20:52.590Z,3.25
2022-12-09T00:23:56.612Z,1.98
2022-12-09T00:26:59.163Z,3.63
2022-12-09T00:30:01.298Z,3.30
2022-12-09T00:33:03.723Z,2.65
2022-12-09T00:36:06.300Z,3.10
2022-12-09T00:39:08.301Z,2.35
2022-12-09T00:42:10.361Z,3.58
2022-12-09T00:45:13.246Z,3.13
2022-12-09T00:48:15.773Z,3.22
2022-12-09T00:51:21.851Z,2.72
2022-12-09T00:54:23.892Z,2.45
2022-12-09T00:57:29.146Z,2.60
2022-12-09T01:00:31.029Z,2.55
2022-12-09T01:03:33.392Z,2.47
2022-12-09T01:06:35.795Z,3.33
2022-12-09T01:09:38.110Z,3.70
2022-12-09T01:12:40.395Z,4.30
2022-12-09T01:15:43.385Z,3.50
2022-12-09T01:18:46.044Z,3.30
2022-12-09T01:21:47.845Z,3.28
2022-12-09T01:24:50.328Z,2.70
2022-12-09T01:27:52.242Z,3.40
2022-12-09T01:30:54.444Z,4.90
2022-12-09T01:33:58.760Z,3.95
2022-12-09T01:37:03.057Z,4.25
2022-12-09T01:40:08.199Z,3.97
2022-12-09T01:43:19.048Z,4.25
2022-12-09T01:46:21.148Z,3.60
2022-12-09T01:49:26.720Z,3.75
2022-12-09T01:52:29.143Z,3.67
2022-12-09T01:55:31.781Z,3.78
2022-12-09T01:58:33.830Z,3.65
2022-12-09T02:01:36.676Z,2.55
2022-12-09T02:04:46.291Z,3.47
2022-12-09T02:07:51.075Z,3.25
2022-12-09T02:11:17.824Z,2.92
2022-12-09T02:14:31.044Z,3.50
2022-12-09T02:17:40.899Z,4.60
2022-12-09T02:21:02.051Z,3.72
2022-12-09T02:24:09.068Z,2.85
2022-12-09T02:30:23.284Z,2.78
2022-12-09T02:33:39.186Z,2.30
2022-12-09T02:37:16.965Z,2.25
2022-12-09T02:40:30.853Z,2.45
2022-12-09T02:43:36.309Z,3.95
2022-12-09T02:46:38.842Z,3.25
2022-12-09T02:49:46.677Z,3.78
2022-12-09T02:52:50.532Z,4.43
2022-12-09T02:55:55.042Z,4.60
2022-12-09T02:58:57.084Z,4.68
2022-12-09T03:02:21.789Z,3.17
2022-12-09T03:05:34.299Z,3.22
2022-12-09T03:09:05.400Z,5.55
2022-12-09T03:12:09.090Z,3.80
2022-12-09T03:15:12.506Z,3.55
2022-12-09T03:18:17.119Z,2.63
2022-12-09T03:21:22.154Z,2.67
2022-12-09T03:24:37.757Z,2.35
2022-12-09T03:27:43.577Z,2.30
2022-12-09T03:30:46.696Z,3.88
2022-12-09T03:33:51.433Z,2.97
2022-12-09T03:36:54.410Z,3.25
2022-12-09T03:39:57.965Z,1.88
2022-12-09T03:43:12.420Z,1.90
2022-12-09T03:46:14.704Z,2.00
2022-12-09T03:49:16.737Z,1.63
2022-12-09T03:52:57.231Z,2.10
2022-12-09T03:56:15.930Z,2.13
2022-12-09T03:59:18.638Z,3.13
2022-12-09T04:02:20.887Z,3.20
2022-12-09T04:05:23.360Z,3.28
2022-12-09T04:08:25.507Z,3.33
2022-12-09T04:11:27.732Z,4.32
2022-12-09T04:14:29.515Z,4.75
2022-12-09T04:17:31.490Z,3.97
2022-12-09T04:20:33.460Z,2.50
2022-12-09T04:23:40.872Z,2.72
2022-12-09T04:26:45.787Z,2.30
2022-12-09T04:29:48.037Z,3.05
2022-12-09T04:32:50.211Z,2.47
2022-12-09T04:35:52.338Z,2.83
2022-12-09T04:38:54.295Z,2.50
2022-12-09T04:41:56.620Z,1.80
2022-12-09T04:44:58.643Z,2.10
2022-12-09T04:48:01.355Z,2.55
2022-12-09T04:51:03.941Z,2.50
2022-12-09T04:54:05.839Z,3.15
2022-12-09T04:57:09.127Z,2.80
2022-12-09T05:00:14.603Z,3.17
2022-12-09T05:03:17.634Z,3.35
2022-12-09T05:06:20.769Z,2.58
2022-12-09T05:09:23.709Z,2.63
2022-12-09T05:12:25.862Z,2.38
2022-12-09T05:15:27.763Z,2.78
2022-12-09T05:18:30.778Z,5.40
2022-12-09T05:21:35.732Z,2.80
2022-12-09T05:24:38.255Z,2.40
2022-12-09T05:27:40.583Z,2.63
2022-12-09T05:30:43.102Z,3.58
2022-12-09T05:33:46.269Z,6.50
2022-12-09T05:36:48.767Z,3.67
2022-12-09T05:39:50.924Z,2.97
2022-12-09T05:42:52.975Z,3.20
2022-12-09T05:45:55.987Z,2.65
2022-12-09T05:48:58.449Z,3.97
2022-12-09T05:52:00.440Z,2.97
2022-12-09T05:55:07.970Z,2.65
2022-12-09T05:58:10.376Z,2.70
2022-12-09T06:01:13.670Z,3.40
2022-12-09T06:04:16.255Z,2.80
2022-12-09T06:07:19.618Z,2.25
2022-12-09T06:10:22.343Z,5.47
2022-12-09T06:13:24.628Z,5.60
2022-12-09T06:16:27.223Z,5.35
2022-12-09T06:19:29.680Z,4.45
2022-12-09T06:22:32.108Z,4.72
2022-12-09T06:25:34.334Z,4.95
2022-12-09T06:28:36.722Z,6.10
2022-12-09T06:31:42.100Z,4.78
2022-12-09T06:34:44.845Z,5.03
2022-12-09T06:37:47.155Z,4.35
2022-12-09T06:40:49.227Z,9.88
2022-12-09T06:43:51.488Z,6.50
2022-12-09T06:46:53.788Z,7.65
2022-12-09T06:50:02.614Z,12.60
2022-12-09T06:53:10.158Z,5.20
2022-12-09T06:56:13.774Z,3.28
2022-12-09T06:59:16.938Z,3.22
2022-12-09T07:02:21.692Z,3.42
2022-12-09T07:05:24.275Z,3.42
2022-12-09T07:08:26.938Z,4.15
2022-12-09T07:11:29.386Z,5.05
2022-12-09T07:14:32.626Z,4.15
2022-12-09T07:17:35.336Z,3.97
2022-12-09T07:20:37.999Z,5.00
2022-12-09T07:23:40.242Z,4.47
2022-12-09T07:26:43.298Z,4.70
2022-12-09T07:29:45.784Z,4.15
2022-12-09T07:32:48.172Z,3.75
2022-12-09T07:35:50.903Z,3.58
2022-12-09T07:38:57.939Z,3.47
2022-12-09T07:42:00.220Z,4.93
2022-12-09T07:45:06.666Z,4.10
2022-12-09T07:48:09.560Z,3.40
2022-12-09T07:51:12.704Z,4.07
2022-12-09T07:54:19.722Z,4.57
2022-12-09T07:57:24.424Z,5.72
2022-12-09T08:00:27.345Z,5.72
2022-12-09T08:03:29.688Z,7.03
2022-12-09T08:06:33.206Z,4.32
2022-12-09T08:09:35.861Z,5.50
2022-12-09T08:12:42.540Z,5.93
2022-12-09T08:15:45.216Z,5.23
2022-12-09T08:18:48.863Z,19.27
2022-12-09T08:21:54.491Z,11.05
2022-12-09T08:24:58.186Z,8.32
2022-12-09T08:28:01.203Z,6.70
2022-12-09T08:31:08.649Z,7.13
2022-12-09T08:34:11.442Z,5.75
2022-12-09T08:37:14.627Z,5.65
2022-12-09T08:40:17.473Z,5.13
2022-12-09T08:43:19.668Z,4.53
2022-12-09T08:46:21.952Z,5.53
2022-12-09T08:49:25.828Z,5.03
2022-12-09T08:52:28.241Z,5.97
2022-12-09T08:55:31.208Z,5.72
2022-12-09T08:58:34.223Z,4.70
2022-12-09T09:01:36.567Z,4.22
2022-12-09T09:04:39.950Z,4.90
2022-12-09T09:07:42.733Z,5.78
2022-12-09T09:10:46.747Z,5.80
2022-12-09T09:13:53.261Z,6.20
2022-12-09T09:16:56.257Z,4.93
2022-12-09T09:19:58.613Z,7.28
2022-12-09T09:23:05.165Z,8.18
2022-12-09T09:26:13.747Z,6.80
2022-12-09T09:29:18.205Z,8.32
2022-12-09T09:32:20.622Z,7.38
2022-12-09T09:35:26.614Z,7.72
2022-12-09T09:38:30.173Z,8.85
2022-12-09T09:42:06.017Z,12.77
2022-12-09T09:45:12.628Z,5.73
2022-12-09T09:48:19.152Z,7.88
2022-12-09T09:51:21.891Z,6.18
2022-12-09T09:54:24.280Z,5.60
2022-12-09T09:57:35.448Z,6.47
2022-12-09T10:01:07.418Z,6.18
2022-12-09T10:04:15.567Z,5.90
2022-12-09T10:07:45.863Z,4.90
2022-12-09T10:11:33.116Z,6.18
2022-12-09T10:15:09.801Z,4.60
2022-12-09T10:18:23.548Z,6.28
2022-12-09T10:21:30.245Z,5.55
2022-12-09T10:24:39.988Z,4.78
2022-12-09T10:28:08.026Z,3.80
2022-12-09T10:31:11.286Z,5.65
2022-12-09T10:34:14.544Z,3.95
2022-12-09T10:37:28.491Z,4.72
2022-12-09T10:40:37.719Z,3.95
2022-12-09T10:43:44.713Z,4.70
2022-12-09T10:46:47.865Z,4.72
2022-12-09T10:49:52.695Z,4.50
2022-12-09T10:52:56.135Z,4.20
2022-12-09T10:56:00.296Z,4.00
2022-12-09T10:59:18.989Z,4.93
2022-12-09T11:02:22.082Z,3.90
2022-12-09T11:05:30.184Z,3.92
2022-12-09T11:08:42.600Z,4.90
2022-12-09T11:11:50.438Z,4.13
2022-12-09T11:14:55.519Z,3.50
2022-12-09T11:18:00.720Z,4.43
2022-12-09T11:21:06.771Z,3.40
2022-12-09T11:24:22.205Z,4.72
2022-12-09T11:27:33.948Z,2.90
2022-12-09T11:30:57.812Z,3.25
2022-12-09T11:34:24.034Z,3.58
2022-12-09T11:37:27.499Z,2.50
2022-12-09T11:40:29.980Z,2.95
2022-12-09T11:43:53.041Z,3.38
2022-12-09T11:47:13.882Z,3.97
2022-12-09T11:50:26.661Z,1.88
2022-12-09T11:53:34.003Z,2.80
2022-12-09T11:59:48.391Z,1.83
2022-12-09T12:03:02.000Z,2.45
2022-12-09T12:06:23.314Z,2.35
2022-12-09T12:09:41.994Z,2.10
2022-12-09T12:13:24.095Z,1.80
2022-12-09T12:16:53.636Z,1.90
2022-12-09T12:19:59.644Z,2.10
2022-12-09T12:23:20.764Z,2.55
2022-12-09T12:26:26.204Z,2.45
2022-12-09T12:29:49.711Z,2.58
2022-12-09T12:36:42.176Z,2.58
2022-12-09T12:40:11.091Z,2.25
2022-12-09T12:43:44.542Z,2.63
2022-12-09T12:47:31.733Z,2.22
2022-12-09T12:50:52.351Z,2.88
2022-12-09T12:54:20.400Z,2.92
2022-12-09T12:57:59.853Z,1.85
2022-12-09T13:01:08.633Z,2.45
2022-12-09T13:04:18.063Z,1.63
2022-12-09T13:07:38.378Z,2.58
2022-12-09T13:10:51.063Z,4.32
2022-12-09T13:13:59.772Z,7.78
2022-12-09T13:17:03.506Z,7.40
2022-12-09T13:20:06.751Z,9.93
2022-12-09T13:23:29.596Z,7.57
2022-12-09T13:26:34.891Z,6.15
2022-12-09T13:29:58.126Z,4.10
2022-12-09T13:33:25.476Z,4.63
2022-12-09T13:36:38.055Z,6.22
2022-12-09T13:39:40.177Z,7.78
2022-12-09T13:42:58.694Z,5.53
2022-12-09T13:46:01.531Z,5.28
2022-12-09T13:49:12.677Z,4.38
2022-12-09T13:52:51.285Z,4.32
2022-12-09T13:55:56.858Z,3.72
2022-12-09T13:59:13.956Z,6.45
2022-12-09T14:02:57.843Z,6.38
2022-12-09T14:06:04.522Z,7.07
2022-12-09T14:09:44.117Z,5.63
2022-12-09T14:12:55.573Z,6.35
2022-12-09T14:16:19.582Z,7.65
2022-12-09T14:19:24.821Z,7.95
2022-12-09T14:22:32.636Z,6.38
2022-12-09T14:25:35.295Z,7.35
2022-12-09T14:28:42.234Z,5.63
2022-12-09T14:31:49.152Z,5.10
2022-12-09T14:35:07.290Z,3.65
2022-12-09T14:38:22.407Z,9.20
2022-12-09T14:41:43.420Z,7.38
2022-12-09T14:44:57.057Z,21.00
2022-12-09T14:48:00.893Z,12.55
2022-12-09T14:51:28.700Z,15.30
2022-12-09T14:54:34.311Z,15.45
2022-12-09T14:57:45.421Z,9.68
2022-12-09T15:00:47.930Z,9.27
2022-12-09T15:04:00.532Z,11.27
2022-12-09T15:07:13.054Z,8.40
2022-12-09T15:10:32.385Z,17.38
2022-12-09T15:13:36.536Z,23.40
2022-12-09T15:16:47.696Z,20.60
2022-12-09T15:20:01.433Z,18.50
2022-12-09T15:23:19.421Z,18.45
2022-12-09T15:29:34.917Z,11.05
2022-12-09T15:32:40.745Z,10.70
2022-12-09T15:35:45.913Z,16.67
2022-12-09T15:39:01.589Z,14.02
2022-12-09T15:42:07.601Z,11.77
2022-12-09T15:45:12.448Z,10.13
2022-12-09T15:48:19.367Z,9.68
2022-12-09T15:51:23.425Z,15.48
2022-12-09T15:54:29.511Z,15.27
2022-12-09T15:57:31.638Z,8.07
2022-12-09T16:00:41.045Z,6.78
2022-12-09T16:03:49.477Z,1.35
2022-12-09T16:06:52.529Z,1.55
2022-12-09T16:10:16.659Z,2.85
2022-12-09T16:13:22.564Z,4.35
2022-12-09T16:16:30.770Z,1.52
2022-12-09T16:19:33.931Z,1.10
2022-12-09T16:22:36.802Z,0.30
2022-12-09T16:25:45.768Z,0.28
2022-12-09T16:29:00.343Z,0.50
2022-12-09T16:32:26.569Z,0.63
2022-12-09T16:35:35.990Z,2.45
2022-12-09T16:38:38.866Z,6.13
2022-12-09T16:41:53.717Z,2.38
2022-12-09T16:45:30.016Z,0.70
2022-12-09T16:48:33.109Z,4.50
2022-12-09T16:51:35.491Z,4.80
2022-12-09T16:54:39.354Z,2.85
2022-12-09T16:57:42.330Z,10.18
2022-12-09T17:00:44.711Z,5.03
2022-12-09T17:03:50.407Z,3.97
2022-12-09T17:06:53.126Z,5.07
2022-12-09T17:09:55.548Z,7.25
2022-12-09T17:12:57.856Z,4.25
2022-12-09T17:16:00.286Z,7.53
2022-12-09T17:19:04.319Z,6.88
2022-12-09T17:22:06.812Z,10.95
2022-12-09T17:25:10.936Z,10.43
2022-12-09T17:28:13.724Z,10.13
2022-12-09T17:31:22.073Z,6.90
2022-12-09T17:34:24.629Z,7.15
2022-12-09T17:37:28.342Z,10.57
2022-12-09T17:40:31.150Z,7.20
2022-12-09T17:43:33.926Z,5.90
2022-12-09T17:46:36.132Z,7.78
2022-12-09T17:49:38.521Z,7.28
2022-12-09T17:52:41.719Z,3.95
2022-12-09T17:55:48.511Z,3.00
2022-12-09T17:58:57.630Z,3.03
2022-12-09T18:02:07.979Z,3.05
2022-12-09T18:05:11.553Z,13.18
2022-12-09T18:08:17.509Z,16.80
2022-12-09T18:11:22.187Z,7.10
2022-12-09T18:14:26.602Z,5.28
2022-12-09T18:17:29.908Z,4.55
2022-12-09T18:20:32.188Z,3.25
2022-12-09T18:23:34.356Z,4.07
2022-12-09T18:26:41.649Z,4.47
2022-12-09T18:29:44.395Z,4.93
2022-12-09T18:32:47.437Z,2.40
2022-12-09T18:35:50.215Z,3.50
2022-12-09T18:38:54.059Z,7.22
2022-12-09T18:41:59.035Z,3.75
2022-12-09T18:45:02.098Z,4.07
2022-12-09T18:48:04.791Z,7.68
2022-12-09T18:51:11.933Z,8.38
2022-12-09T18:57:30.429Z,2.47
2022-12-09T19:00:38.518Z,2.20
2022-12-09T19:03:42.605Z,11.07
2022-12-09T19:06:48.940Z,7.18
2022-12-09T19:09:52.336Z,9.43
2022-12-09T19:12:57.302Z,9.93
2022-12-09T19:16:06.426Z,8.88
2022-12-09T19:19:11.106Z,10.10
2022-12-09T19:22:13.337Z,9.75
2022-12-09T19:25:15.860Z,16.08
2022-12-09T19:28:18.170Z,10.95
2022-12-09T19:31:26.886Z,11.02
2022-12-09T19:34:31.324Z,9.68
2022-12-09T19:37:33.912Z,9.68
2022-12-09T19:40:37.436Z,8.18
2022-12-09T19:43:40.248Z,7.43
2022-12-09T19:46:43.085Z,6.43
2022-12-09T19:49:45.548Z,5.40
2022-12-09T19:52:47.520Z,4.68
2022-12-09T19:55:50.462Z,3.67
2022-12-09T19:58:54.243Z,6.55
2022-12-09T20:01:57.350Z,4.05
2022-12-09T20:05:01.197Z,4.75
2022-12-09T20:08:06.167Z,4.07
2022-12-09T20:11:18.241Z,2.50
2022-12-09T20:14:20.662Z,2.03
2022-12-09T20:17:23.246Z,2.78
2022-12-09T20:20:25.462Z,1.85
2022-12-09T20:23:28.481Z,0.77
2022-12-09T20:26:34.123Z,1.30
2022-12-09T20:29:38.157Z,2.95
2022-12-09T20:32:41.189Z,2.55
2022-12-09T20:35:43.575Z,3.00
2022-12-09T20:38:58.909Z,2.38
2022-12-09T20:42:01.215Z,2.17
2022-12-09T20:45:05.080Z,1.67
2022-12-09T20:48:08.104Z,1.77
2022-12-09T20:51:16.446Z,2.55
2022-12-09T20:54:21.750Z,1.80
2022-12-09T20:57:25.689Z,1.42
2022-12-09T21:00:28.630Z,2.13
2022-12-09T21:03:32.402Z,1.80
2022-12-09T21:06:39.999Z,1.50
2022-12-09T21:09:43.080Z,1.48
2022-12-09T21:12:51.059Z,1.35
2022-12-09T21:15:54.947Z,1.67
2022-12-09T21:19:05.030Z,1.50
2022-12-09T21:22:09.460Z,1.00
2022-12-09T21:25:12.647Z,1.45
2022-12-09T21:28:20.077Z,1.40
2022-12-09T21:31:32.730Z,0.98
2022-12-09T21:34:50.098Z,1.02
2022-12-09T21:38:00.149Z,0.93
2022-12-09T21:41:13.035Z,0.98
2022-12-09T21:44:22.979Z,1.45
2022-12-09T21:47:25.051Z,1.23
2022-12-09T21:50:28.449Z,1.63
2022-12-09T21:53:33.655Z,1.90
2022-12-09T21:56:37.235Z,1.38
2022-12-09T21:59:39.272Z,2.00
2022-12-09T22:02:43.438Z,1.25
2022-12-09T22:05:45.615Z,1.33
2022-12-09T22:08:47.711Z,2.00
2022-12-09T22:11:50.848Z,0.82
2022-12-09T22:14:52.851Z,1.10
2022-12-09T22:17:54.755Z,0.88
2022-12-09T22:24:18.993Z,1.73
2022-12-09T22:27:21.324Z,1.48
2022-12-09T22:30:23.366Z,1.60
2022-12-09T22:33:25.603Z,1.35
2022-12-09T22:36:28.250Z,2.08
2022-12-09T22:39:30.894Z,2.13
2022-12-09T22:42:33.230Z,1.65
2022-12-09T22:45:36.427Z,0.98
2022-12-09T22:48:39.597Z,0.93
2022-12-09T22:51:42.394Z,1.27
2022-12-09T22:54:44.653Z,1.08
2022-12-09T22:57:46.722Z,0.90
2022-12-09T23:00:49.234Z,1.60
2022-12-09T23:03:52.216Z,1.77
2022-12-09T23:06:54.280Z,1.42
2022-12-09T23:09:56.290Z,0.98
2022-12-09T23:12:58.641Z,1.15
2022-12-09T23:16:05.272Z,1.55
2022-12-09T23:19:07.642Z,1.67
2022-12-09T23:22:09.814Z,1.50
2022-12-09T23:25:11.833Z,1.52
2022-12-09T23:28:13.757Z,1.85
2022-12-09T23:31:18.577Z,1.00
2022-12-09T23:34:22.947Z,1.30
2022-12-09T23:37:25.378Z,0.98
2022-12-09T23:40:27.335Z,0.93
2022-12-09T23:43:34.657Z,1.35
2022-12-09T23:46:37.279Z,1.27
2022-12-09T23:49:39.649Z,1.13
2022-12-09T23:52:41.857Z,1.23
2022-12-09T23:55:45.745Z,1.58
2022-12-09T23:58:48.284Z,2.67
